Погода Жанаубана неделю

Минас-Жерайс, Бразилия

24 - 30 апреля
  • 24апреля
    Сегодня
    +20°
    +33°
    Ясно и безоблачно
    ВремяПогодаТемператураВлажностьДавлениеВетер, м/сВероятность осадков
    00:00Ясно и безоблачно+23°C70 %710 мм3.1 м/с4 %
    03:00Ясно и безоблачно+22°C85 %710 мм1.8 м/с5 %
    06:00Ясно и безоблачно+21°C89 %710 мм2.4 м/с5 %
    09:00Ясно и безоблачно+27°C68 %712 мм2.2 м/с5 %
    12:00Ясно и безоблачно+31°C50 %711 мм2.1 м/с24 %
    15:00Ясно и безоблачно+32°C44 %709 мм1.3 м/с22 %
    18:00Ясно и безоблачно+28°C58 %709 мм1.2 м/с5 %
    21:00Ясно и безоблачно+26°C62 %710 мм2.7 м/с5 %
  • 25апреля
    Четверг
    +22°
    +33°
    Практически безоблачно
    ВремяПогодаТемператураВлажностьДавлениеВетер, м/сВероятность осадков
    00:00Ясно и безоблачно+24°C68 %710 мм3.0 м/с2 %
    03:00Ясно и безоблачно+22°C84 %709 мм2.3 м/с2 %
    06:00Ясно и безоблачно+21°C91 %709 мм2.2 м/с5 %
    09:00Ясно и безоблачно+27°C70 %711 мм1.0 м/с5 %
    12:00Ясно и безоблачно+32°C47 %710 мм2.5 м/с2 %
    15:00Практически безоблачно+33°C41 %709 мм2.8 м/с2 %
    18:00Ясно и безоблачно+29°C50 %709 мм2.8 м/с5 %
    21:00Ясно и безоблачно+27°C58 %710 мм3.7 м/с6 %
  • 26апреля
    Пятница
    +20°
    +32°
    Ясно и безоблачно
    ВремяПогодаТемператураВлажностьДавлениеВетер, м/сВероятность осадков
    00:00Ясно и безоблачно+25°C64 %710 мм4.2 м/с7 %
    03:00Ясно и безоблачно+23°C71 %709 мм3.9 м/с4 %
    06:00Ясно и безоблачно+23°C74 %710 мм3.8 м/с5 %
    09:00Ясно и безоблачно+26°C62 %712 мм4.0 м/с5 %
    12:00Ясно и безоблачно+30°C46 %711 мм4.2 м/с5 %
    15:00Ясно и безоблачно+32°C39 %709 мм3.6 м/с5 %
    18:00Ясно и безоблачно+28°C48 %709 мм2.8 м/с5 %
    21:00Ясно и безоблачно+25°C57 %711 мм3.5 м/с5 %
  • 27апреля
    Суббота
    +21°
    +32°
    Практически безоблачно
    ВремяПогодаТемператураВлажностьДавлениеВетер, м/сВероятность осадков
    00:00Ясно и безоблачно+23°C63 %711 мм3.0 м/с5 %
    03:00Ясно и безоблачно+22°C74 %710 мм2.8 м/с5 %
    06:00Небольшая облачность+21°C83 %710 мм2.7 м/с5 %
    09:00Облачно с прояснениями+26°C65 %712 мм5.1 м/с5 %
    12:00Облачно с прояснениями+30°C51 %711 мм3.7 м/с5 %
    15:00Практически безоблачно+32°C45 %709 мм2.3 м/с5 %
    18:00Практически безоблачно+28°C59 %709 мм1.8 м/с4 %
    21:00Ясно и безоблачно+26°C66 %710 мм3.6 м/с4 %
Мы используем cookies
Соглашаюсь